createdAt,value
2018-03-16T00:00:38.707Z,23.6
2018-03-16T00:01:28.139Z,23.4
2018-03-16T00:02:18.611Z,23.4
2018-03-16T00:03:08.769Z,23.3
2018-03-16T00:03:58.849Z,23.1
2018-03-16T00:04:48.466Z,22.8
2018-03-16T00:05:40.006Z,22.5
2018-03-16T00:06:29.494Z,22.3
2018-03-16T00:07:18.966Z,22.2
2018-03-16T00:08:09.322Z,22.1
2018-03-16T00:08:59.346Z,22.1
2018-03-16T00:09:50.002Z,22.1
2018-03-16T00:10:39.718Z,22.1
2018-03-16T00:11:29.976Z,22
2018-03-16T00:12:19.899Z,22.3
2018-03-16T00:13:09.093Z,22.6
2018-03-16T00:13:58.799Z,22.9
2018-03-16T00:14:48.666Z,23.3
2018-03-16T00:15:39.776Z,23.6
2018-03-16T00:16:29.251Z,24
2018-03-16T00:17:19.761Z,24.3
2018-03-16T00:18:09.366Z,24.6
2018-03-16T00:18:59.516Z,24.8
2018-03-16T00:19:50.263Z,25.1
2018-03-16T00:20:40.551Z,24.6
2018-03-16T00:21:29.379Z,24
2018-03-16T00:22:20.468Z,23.8
2018-03-16T00:23:08.653Z,23.7
2018-03-16T00:23:59.787Z,23.6
2018-03-16T00:24:49.344Z,23.4
2018-03-16T00:25:40.653Z,23.3
2018-03-16T00:26:29.878Z,22.9
2018-03-16T00:27:20.827Z,22.6
2018-03-16T00:28:09.973Z,22.4
2018-03-16T00:29:00.921Z,22.3
2018-03-16T00:29:50.893Z,22.2
2018-03-16T00:30:41.333Z,22.1
2018-03-16T00:31:30.500Z,22.1
2018-03-16T00:32:20.720Z,22.1
2018-03-16T00:33:11.092Z,22.1
2018-03-16T00:34:01.335Z,22.2
2018-03-16T00:34:50.977Z,22.5
2018-03-16T00:35:41.388Z,22.8
2018-03-16T00:36:30.781Z,23.1
2018-03-16T00:37:21.298Z,23.6
2018-03-16T00:38:12.619Z,23.9
2018-03-16T00:39:01.457Z,24.2
2018-03-16T00:39:51.760Z,24.5
2018-03-16T00:40:41.589Z,24.8
2018-03-16T00:41:30.970Z,25.1
2018-03-16T00:42:21.805Z,24.6
2018-03-16T00:43:11.258Z,24
2018-03-16T00:44:01.409Z,23.8
2018-03-16T00:44:52.242Z,23.7
2018-03-16T00:45:41.418Z,23.6
2018-03-16T00:46:31.432Z,23.4
2018-03-16T00:47:22.403Z,23.4
2018-03-16T00:48:11.299Z,23.1
2018-03-16T00:49:01.296Z,22.8
2018-03-16T00:49:52.188Z,22.5
2018-03-16T00:50:42.061Z,22.4
2018-03-16T00:51:31.762Z,22.3
2018-03-16T00:52:22.643Z,22.3
2018-03-16T00:53:12.265Z,22.2
2018-03-16T00:54:02.726Z,22.2
2018-03-16T00:54:53.336Z,22.1
2018-03-16T00:55:42.560Z,22.1
2018-03-16T00:56:32.798Z,22.4
2018-03-16T00:57:22.861Z,22.8
2018-03-16T00:58:11.198Z,23.1
2018-03-16T00:59:02.846Z,23.5
2018-03-16T00:59:52.373Z,23.8
2018-03-16T01:00:42.816Z,24.2
2018-03-16T01:01:31.899Z,24.5
2018-03-16T01:02:22.440Z,24.8
2018-03-16T01:03:13.026Z,25
2018-03-16T01:04:02.474Z,24.9
2018-03-16T01:04:52.618Z,24.1
2018-03-16T01:05:42.789Z,23.9
2018-03-16T01:06:33.900Z,23.8
2018-03-16T01:07:22.619Z,23.6
2018-03-16T01:08:12.683Z,23.6
2018-03-16T01:09:03.762Z,23.4
2018-03-16T01:09:53.920Z,23.4
2018-03-16T01:10:42.838Z,23
2018-03-16T01:11:34.382Z,22.7
2018-03-16T01:12:23.488Z,22.5
2018-03-16T01:13:13.808Z,22.4
2018-03-16T01:14:03.459Z,22.3
2018-03-16T01:14:53.150Z,22.3
2018-03-16T01:15:44.265Z,22.3
2018-03-16T01:16:33.875Z,22.3
2018-03-16T01:17:24.734Z,22.2
2018-03-16T01:18:14.935Z,22.3
2018-03-16T01:19:04.162Z,22.6
2018-03-16T01:19:53.831Z,22.9
2018-03-16T01:20:44.057Z,23.3
2018-03-16T01:21:33.915Z,23.7
2018-03-16T01:22:24.674Z,24
2018-03-16T01:23:14.532Z,24.3
2018-03-16T01:24:04.593Z,24.6
2018-03-16T01:24:54.265Z,24.9
2018-03-16T01:25:43.777Z,25.1
2018-03-16T01:26:34.795Z,25.3
2018-03-16T01:27:24.435Z,24.4
2018-03-16T01:28:15.130Z,24.1
2018-03-16T01:29:04.644Z,23.9
2018-03-16T01:29:55.172Z,23.8
2018-03-16T01:30:44.774Z,23.6
2018-03-16T01:31:35.093Z,23.6
2018-03-16T01:32:24.988Z,23.2
2018-03-16T01:33:15.245Z,22.8
2018-03-16T01:34:04.349Z,22.6
2018-03-16T01:34:55.071Z,22.5
2018-03-16T01:35:45.246Z,22.4
2018-03-16T01:36:35.084Z,22.3
2018-03-16T01:37:26.204Z,22.3
2018-03-16T01:38:15.152Z,22.3
2018-03-16T01:39:06.066Z,22.3
2018-03-16T01:39:56.278Z,22.3
2018-03-16T01:40:45.864Z,22.5
2018-03-16T01:41:35.485Z,22.8
2018-03-16T01:42:26.482Z,23.1
2018-03-16T01:43:16.255Z,23.5
2018-03-16T01:44:05.561Z,23.9
2018-03-16T01:44:56.355Z,24.2
2018-03-16T01:45:45.403Z,24.5
2018-03-16T01:46:36.980Z,24.8
2018-03-16T01:47:26.456Z,25
2018-03-16T01:48:15.221Z,25.3
2018-03-16T01:49:07.241Z,24.5
2018-03-16T01:49:55.789Z,24.2
2018-03-16T01:50:46.698Z,23.9
2018-03-16T01:51:35.130Z,23.8
2018-03-16T01:52:26.850Z,23.7
2018-03-16T01:53:16.897Z,23.6
2018-03-16T01:54:06.692Z,23.4
2018-03-16T01:54:56.260Z,23.1
2018-03-16T01:55:47.661Z,22.8
2018-03-16T01:56:36.430Z,22.6
2018-03-16T01:57:26.373Z,22.4
2018-03-16T01:58:16.515Z,22.4
2018-03-16T01:59:07.902Z,22.4
2018-03-16T01:59:56.792Z,22.3
2018-03-16T02:00:47.326Z,22.3
2018-03-16T02:01:37.885Z,22.3
2018-03-16T02:02:27.807Z,22.4
2018-03-16T02:03:16.617Z,22.7
2018-03-16T02:04:07.734Z,23
2018-03-16T02:04:56.530Z,23.4
2018-03-16T02:05:47.380Z,23.7
2018-03-16T02:06:37.245Z,24.1
2018-03-16T02:07:28.205Z,24.4
2018-03-16T02:08:18.517Z,24.6
2018-03-16T02:09:08.105Z,24.9
2018-03-16T02:09:58.766Z,25.2
2018-03-16T02:10:47.955Z,24.6
2018-03-16T02:11:37.803Z,24.1
2018-03-16T02:12:28.256Z,24
2018-03-16T02:13:17.642Z,23.8
2018-03-16T02:14:07.816Z,23.7
2018-03-16T02:14:57.951Z,23.6
2018-03-16T02:15:48.287Z,23.6
2018-03-16T02:16:37.575Z,23.3
2018-03-16T02:17:28.824Z,22.9
2018-03-16T02:18:18.786Z,22.8
2018-03-16T02:19:08.254Z,22.6
2018-03-16T02:19:58.524Z,22.4
2018-03-16T02:20:49.210Z,22.4
2018-03-16T02:21:39.414Z,22.4
2018-03-16T02:22:28.556Z,22.4
2018-03-16T02:23:19.716Z,22.3
2018-03-16T02:24:09.391Z,22.3
2018-03-16T02:24:59.939Z,22.6
2018-03-16T02:25:49.720Z,22.9
2018-03-16T02:26:39.467Z,23.3
2018-03-16T02:27:28.581Z,23.6
2018-03-16T02:28:19.626Z,23.9
2018-03-16T02:29:09.187Z,24.3
2018-03-16T02:29:59.332Z,24.6
2018-03-16T02:30:48.897Z,24.8
2018-03-16T02:31:39.121Z,25.1
2018-03-16T02:32:29.994Z,24.8
2018-03-16T02:33:19.780Z,24.1
2018-03-16T02:34:08.763Z,24
2018-03-16T02:34:59.900Z,23.8
2018-03-16T02:35:49.476Z,23.8
2018-03-16T02:36:40.612Z,23.6
2018-03-16T02:37:29.896Z,23.6
2018-03-16T02:38:20.388Z,23.3
2018-03-16T02:39:09.602Z,23
2018-03-16T02:40:00.533Z,22.8
2018-03-16T02:40:51.396Z,22.6
2018-03-16T02:41:41.563Z,22.5
2018-03-16T02:42:30.532Z,22.4
2018-03-16T02:43:20.502Z,22.4
2018-03-16T02:44:09.728Z,22.4
2018-03-16T02:45:01.110Z,22.4
2018-03-16T02:45:51.089Z,22.4
2018-03-16T02:46:41.234Z,22.6
2018-03-16T02:47:30.953Z,22.9
2018-03-16T02:48:20.680Z,23.3
2018-03-16T02:49:10.815Z,23.6
2018-03-16T02:50:00.989Z,23.9
2018-03-16T02:50:52.214Z,24.3
2018-03-16T02:51:40.637Z,24.6
2018-03-16T02:52:31.810Z,24.8
2018-03-16T02:53:20.617Z,25.1
2018-03-16T02:54:11.190Z,25.1
2018-03-16T02:55:00.625Z,24.3
2018-03-16T02:55:51.216Z,24.1
2018-03-16T02:56:41.740Z,23.9
2018-03-16T02:57:31.312Z,23.8
2018-03-16T02:58:21.298Z,23.7
2018-03-16T02:59:11.357Z,23.6
2018-03-16T03:00:01.322Z,23.4
2018-03-16T03:00:52.030Z,23.1
2018-03-16T03:01:41.598Z,22.8
2018-03-16T03:02:31.885Z,22.7
2018-03-16T03:03:22.057Z,22.6
2018-03-16T03:04:13.383Z,22.4
2018-03-16T03:05:02.902Z,22.4
2018-03-16T03:05:51.052Z,22.4
2018-03-16T03:06:41.269Z,22.4
2018-03-16T03:07:32.423Z,22.4
2018-03-16T03:08:22.084Z,22.6
2018-03-16T03:09:12.336Z,22.9
2018-03-16T03:10:02.240Z,23.2
2018-03-16T03:10:52.342Z,23.6
2018-03-16T03:11:42.152Z,23.9
2018-03-16T03:12:32.823Z,24.2
2018-03-16T03:13:22.659Z,24.6
2018-03-16T03:14:13.436Z,24.8
2018-03-16T03:15:03.794Z,25.1
2018-03-16T03:15:53.838Z,25.2
2018-03-16T03:16:43.156Z,24.3
2018-03-16T03:17:33.955Z,24.1
2018-03-16T03:18:24.296Z,23.9
2018-03-16T03:19:13.802Z,23.8
2018-03-16T03:20:04.736Z,23.7
2018-03-16T03:20:54.198Z,23.6
2018-03-16T03:21:44.289Z,23.6
2018-03-16T03:22:33.750Z,23.2
2018-03-16T03:23:23.836Z,22.9
2018-03-16T03:24:13.856Z,22.8
2018-03-16T03:25:04.036Z,22.6
2018-03-16T03:25:54.910Z,22.5
2018-03-16T03:26:45.210Z,22.4
2018-03-16T03:27:35.036Z,22.5
2018-03-16T03:28:24.470Z,22.4
2018-03-16T03:29:15.110Z,22.4
2018-03-16T03:30:03.400Z,22.5
2018-03-16T03:30:53.562Z,22.8
2018-03-16T03:31:44.648Z,23.1
2018-03-16T03:32:33.665Z,23.5
2018-03-16T03:33:25.059Z,23.8
2018-03-16T03:34:15.543Z,24.2
2018-03-16T03:35:04.975Z,24.5
2018-03-16T03:35:54.700Z,24.8
2018-03-16T03:36:45.635Z,25
2018-03-16T03:37:35.432Z,25.3
2018-03-16T03:38:25.484Z,24.4
2018-03-16T03:39:15.240Z,24.2
2018-03-16T03:40:05.294Z,24
2018-03-16T03:40:55.337Z,23.9
2018-03-16T03:41:45.640Z,23.8
2018-03-16T03:42:35.145Z,23.7
2018-03-16T03:43:26.119Z,23.6
2018-03-16T03:44:16.421Z,23.4
2018-03-16T03:45:05.946Z,23.1
2018-03-16T03:45:56.544Z,22.9
2018-03-16T03:46:46.032Z,22.7
2018-03-16T03:47:36.364Z,22.6
2018-03-16T03:48:26.736Z,22.5
2018-03-16T03:49:15.986Z,22.5
2018-03-16T03:50:06.249Z,22.5
2018-03-16T03:50:56.378Z,22.4
2018-03-16T03:51:45.272Z,22.4
2018-03-16T03:52:35.891Z,22.8
2018-03-16T03:53:26.493Z,23
2018-03-16T03:54:17.212Z,23.4
2018-03-16T03:55:06.935Z,23.7
2018-03-16T03:55:57.236Z,24.1
2018-03-16T03:56:46.894Z,24.3
2018-03-16T03:57:36.855Z,24.6
2018-03-16T03:58:27.161Z,24.9
2018-03-16T03:59:17.233Z,25.2
2018-03-16T04:00:07.055Z,25.4
2018-03-16T04:00:56.250Z,24.9
2018-03-16T04:01:45.781Z,24.4
2018-03-16T04:02:36.360Z,24.1
2018-03-16T04:03:25.367Z,24
2018-03-16T04:04:16.167Z,23.9
2018-03-16T04:05:05.590Z,23.8
2018-03-16T04:05:57.519Z,23.7
2018-03-16T04:06:46.624Z,23.4
2018-03-16T04:07:36.424Z,23.1
2018-03-16T04:08:27.695Z,22.8
2018-03-16T04:09:16.827Z,22.7
2018-03-16T04:10:08.275Z,22.6
2018-03-16T04:10:57.458Z,22.6
2018-03-16T04:11:48.400Z,22.5
2018-03-16T04:12:37.934Z,22.5
2018-03-16T04:13:27.685Z,22.5
2018-03-16T04:14:18.169Z,22.6
2018-03-16T04:15:07.807Z,22.8
2018-03-16T04:15:58.192Z,23.2
2018-03-16T04:16:48.462Z,23.5
2018-03-16T04:17:38.004Z,23.9
2018-03-16T04:18:27.204Z,24.2
2018-03-16T04:19:18.700Z,24.5
2018-03-16T04:20:07.705Z,24.8
2018-03-16T04:20:57.086Z,25
2018-03-16T04:21:47.627Z,25.3
2018-03-16T04:22:38.162Z,25.1
2018-03-16T04:23:27.170Z,24.3
2018-03-16T04:24:18.024Z,24.2
2018-03-16T04:25:22.840Z,24
2018-03-16T04:25:57.297Z,23.8
2018-03-16T04:26:47.599Z,23.8
2018-03-16T04:27:38.313Z,23.7
2018-03-16T04:28:28.373Z,23.5
2018-03-16T04:29:18.017Z,23.1
2018-03-16T04:30:08.807Z,22.9
2018-03-16T04:30:58.850Z,22.8
2018-03-16T04:31:47.554Z,22.6
2018-03-16T04:32:38.509Z,22.6
2018-03-16T04:33:28.979Z,22.6
2018-03-16T04:34:15.712Z,22.5
2018-03-16T04:35:09.094Z,22.5
2018-03-16T04:35:59.049Z,22.4
2018-03-16T04:36:48.709Z,22.8
2018-03-16T04:37:38.472Z,23.1
2018-03-16T04:38:28.621Z,23.4
2018-03-16T04:39:17.900Z,23.8
2018-03-16T04:40:09.171Z,24.1
2018-03-16T04:40:58.112Z,24.5
2018-03-16T04:41:49.467Z,24.8
2018-03-16T04:42:38.765Z,25.1
2018-03-16T04:43:29.186Z,25.3
2018-03-16T04:44:19.065Z,25.4
2018-03-16T04:45:09.695Z,24.4
2018-03-16T04:45:59.762Z,24.3
2018-03-16T04:46:49.502Z,24.1
2018-03-16T04:47:39.129Z,23.9
2018-03-16T04:48:28.662Z,23.8
2018-03-16T04:49:19.222Z,23.8
2018-03-16T04:50:09.343Z,23.7
2018-03-16T04:51:00.421Z,23.6
2018-03-16T04:51:50.032Z,23.6
2018-03-16T04:52:39.763Z,23.6
2018-03-16T04:53:29.457Z,23.3
2018-03-16T04:54:19.268Z,23
2018-03-16T04:55:10.223Z,22.8
2018-03-16T04:56:00.139Z,22.7
2018-03-16T04:56:48.962Z,22.6
2018-03-16T04:57:40.591Z,22.6
2018-03-16T04:58:30.133Z,22.5
2018-03-16T04:59:19.039Z,22.5
2018-03-16T05:00:09.574Z,22.4
2018-03-16T05:01:00.633Z,22.4
2018-03-16T05:01:50.007Z,22.8
2018-03-16T05:02:40.213Z,23.1
2018-03-16T05:03:30.586Z,23.5
2018-03-16T05:04:20.602Z,23.9
2018-03-16T05:05:11.127Z,24.2
2018-03-16T05:06:00.923Z,24.6
2018-03-16T05:06:50.723Z,24.8
2018-03-16T05:07:41.193Z,25.1
2018-03-16T05:08:30.688Z,25.3
2018-03-16T05:09:20.750Z,25.2
2018-03-16T05:10:10.893Z,24.4
2018-03-16T05:11:01.417Z,24.2
2018-03-16T05:11:50.998Z,24.1
2018-03-16T05:12:40.682Z,23.9
2018-03-16T05:13:31.822Z,23.8
2018-03-16T05:14:21.645Z,23.8
2018-03-16T05:15:11.061Z,23.7
2018-03-16T05:16:01.095Z,23.6
2018-03-16T05:16:52.793Z,23.6
2018-03-16T05:17:42.003Z,23.4
2018-03-16T05:18:31.567Z,23.1
2018-03-16T05:19:21.655Z,22.9
2018-03-16T05:20:11.778Z,22.7
2018-03-16T05:21:01.999Z,22.6
2018-03-16T05:21:51.911Z,22.5
2018-03-16T05:22:42.259Z,22.5
2018-03-16T05:23:31.761Z,22.4
2018-03-16T05:24:22.468Z,22.4
2018-03-16T05:25:11.071Z,22.4
2018-03-16T05:26:02.428Z,22.6
2018-03-16T05:26:52.756Z,22.9
2018-03-16T05:27:43.652Z,23.3
2018-03-16T05:28:32.496Z,23.7
2018-03-16T05:29:23.004Z,24
2018-03-16T05:30:12.219Z,24.3
2018-03-16T05:31:02.938Z,24.6
2018-03-16T05:31:52.167Z,24.9
2018-03-16T05:32:42.786Z,25.1
2018-03-16T05:33:32.453Z,25.3
2018-03-16T05:34:23.234Z,25.4
2018-03-16T05:35:12.491Z,24.4
2018-03-16T05:36:01.278Z,24.3
2018-03-16T05:36:52.773Z,24.1
2018-03-16T05:37:43.118Z,23.9
2018-03-16T05:38:32.510Z,23.8
2018-03-16T05:39:22.778Z,23.6
2018-03-16T05:40:13.654Z,23.6
2018-03-16T05:41:03.188Z,23.6
2018-03-16T05:41:53.565Z,23.4
2018-03-16T05:42:44.153Z,23.1
2018-03-16T05:43:34.647Z,22.8
2018-03-16T05:44:25.039Z,22.7
2018-03-16T05:45:14.532Z,22.6
2018-03-16T05:46:05.145Z,22.4
2018-03-16T05:46:54.625Z,22.4
2018-03-16T05:47:45.227Z,22.4
2018-03-16T05:48:34.779Z,22.4
2018-03-16T05:49:25.099Z,22.3
2018-03-16T05:50:14.874Z,22.6
2018-03-16T05:51:05.475Z,23
2018-03-16T05:51:54.968Z,23.4
2018-03-16T05:52:45.059Z,23.7
2018-03-16T05:53:34.847Z,24.1
2018-03-16T05:54:25.171Z,24.4
2018-03-16T05:55:15.274Z,24.8
2018-03-16T05:56:05.832Z,25.1
2018-03-16T05:56:54.497Z,25.3
2018-03-16T05:57:45.112Z,25.5
2018-03-16T05:58:34.915Z,25.7
2018-03-16T05:59:24.842Z,25.9
2018-03-16T06:00:14.076Z,26
2018-03-16T06:01:04.796Z,26.1
2018-03-16T06:01:54.444Z,26.3
2018-03-16T06:02:44.980Z,26.3
2018-03-16T06:03:34.769Z,26.4
2018-03-16T06:04:24.314Z,26.5
2018-03-16T06:05:15.282Z,26.5
2018-03-16T06:06:04.748Z,26.6
2018-03-16T06:06:54.977Z,26.6
2018-03-16T06:07:45.276Z,26.6
2018-03-16T06:08:35.621Z,26.6
2018-03-16T06:09:26.046Z,26.6
2018-03-16T06:10:15.243Z,26.6
2018-03-16T06:11:05.711Z,25.5
2018-03-16T06:11:55.651Z,24.4
2018-03-16T06:12:45.368Z,23.8
2018-03-16T06:13:36.640Z,23.3
2018-03-16T06:14:25.965Z,22.9
2018-03-16T06:15:15.911Z,22.8
2018-03-16T06:16:05.471Z,22.6
2018-03-16T06:16:56.270Z,22.5
2018-03-16T06:17:46.241Z,22.4
2018-03-16T06:18:35.651Z,22.3
2018-03-16T06:19:25.719Z,22.6
2018-03-16T06:20:16.356Z,22.9
2018-03-16T06:21:05.468Z,23.3
2018-03-16T06:21:55.288Z,23.6
2018-03-16T06:22:45.830Z,24
2018-03-16T06:23:36.405Z,24.3
2018-03-16T06:24:26.962Z,24.6
2018-03-16T06:25:16.313Z,24.9
2018-03-16T06:26:07.064Z,25.1
2018-03-16T06:26:57.385Z,25.3
2018-03-16T06:27:47.064Z,25.5
2018-03-16T06:28:37.315Z,25.7
2018-03-16T06:29:27.089Z,25.8
2018-03-16T06:30:17.166Z,26
2018-03-16T06:31:06.448Z,26.1
2018-03-16T06:31:56.617Z,26.2
2018-03-16T06:32:46.959Z,26.3
2018-03-16T06:33:37.807Z,26.3
2018-03-16T06:34:27.855Z,26.4
2018-03-16T06:35:16.529Z,26.4
2018-03-16T06:36:07.835Z,26.5
2018-03-16T06:36:57.634Z,26.5
2018-03-16T06:37:47.725Z,26.5
2018-03-16T06:38:37.552Z,26.5
2018-03-16T06:39:27.219Z,26
2018-03-16T06:40:16.909Z,24.8
2018-03-16T06:41:08.064Z,23.9
2018-03-16T06:41:57.886Z,23.4
2018-03-16T06:42:47.439Z,23
2018-03-16T06:43:38.495Z,22.8
2018-03-16T06:44:27.829Z,22.6
2018-03-16T06:45:17.844Z,22.5
2018-03-16T06:46:08.566Z,22.4
2018-03-16T06:46:58.071Z,22.4
2018-03-16T06:47:49.236Z,22.3
2018-03-16T06:48:38.451Z,22.7
2018-03-16T06:49:29.359Z,23.1
2018-03-16T06:50:19.399Z,23.4
2018-03-16T06:51:09.446Z,23.8
2018-03-16T06:51:58.436Z,24.2
2018-03-16T06:52:48.627Z,24.5
2018-03-16T06:53:38.625Z,24.9
2018-03-16T06:54:28.895Z,25.1
2018-03-16T06:55:18.654Z,25.3
2018-03-16T06:56:09.048Z,25.6
2018-03-16T06:56:58.451Z,25.8
2018-03-16T06:57:48.428Z,25.9
2018-03-16T06:58:38.471Z,26.1
2018-03-16T06:59:28.673Z,26.2
2018-03-16T07:00:18.118Z,26.3
2018-03-16T07:01:09.225Z,26.4
2018-03-16T07:01:58.913Z,26.4
2018-03-16T07:02:48.642Z,26.5
2018-03-16T07:03:39.117Z,26.6
2018-03-16T07:04:29.572Z,26.6
2018-03-16T07:05:19.217Z,26.6
2018-03-16T07:06:10.266Z,26.6
2018-03-16T07:07:00.612Z,26.6
2018-03-16T07:07:49.047Z,26.7
2018-03-16T07:08:39.899Z,25.3
2018-03-16T07:09:29.827Z,24.3
2018-03-16T07:10:19.451Z,23.7
2018-03-16T07:11:09.729Z,23.2
2018-03-16T07:11:59.577Z,22.9
2018-03-16T07:12:49.850Z,22.6
2018-03-16T07:13:39.800Z,22.5
2018-03-16T07:14:27.664Z,22.4
2018-03-16T07:15:18.887Z,22.3
2018-03-16T07:16:09.322Z,22.4
2018-03-16T07:16:59.871Z,22.7
2018-03-16T07:17:49.834Z,23.1
2018-03-16T07:18:40.552Z,23.4
2018-03-16T07:19:31.228Z,23.8
2018-03-16T07:20:19.654Z,24.2
2018-03-16T07:21:11.064Z,24.5
2018-03-16T07:22:00.323Z,24.8
2018-03-16T07:22:50.417Z,25
2018-03-16T07:23:40.366Z,25.3
2018-03-16T07:24:30.690Z,25.5
2018-03-16T07:25:20.864Z,25.7
2018-03-16T07:26:11.001Z,25.8
2018-03-16T07:27:00.619Z,25.9
2018-03-16T07:27:50.401Z,26.1
2018-03-16T07:28:41.221Z,26.2
2018-03-16T07:29:31.134Z,26.3
2018-03-16T07:30:21.501Z,26.3
2018-03-16T07:31:11.059Z,26.4
2018-03-16T07:32:01.029Z,26.4
2018-03-16T07:32:52.278Z,26.5
2018-03-16T07:33:40.877Z,26.6
2018-03-16T07:34:31.416Z,26.6
2018-03-16T07:35:20.890Z,26.6
2018-03-16T07:36:11.821Z,26.2
2018-03-16T07:37:01.087Z,24.8
2018-03-16T07:37:51.439Z,23.9
2018-03-16T07:38:41.546Z,23.4
2018-03-16T07:39:32.868Z,23
2018-03-16T07:40:22.652Z,22.7
2018-03-16T07:41:13.604Z,22.5
2018-03-16T07:42:02.341Z,22.4
2018-03-16T07:42:53.808Z,22.3
2018-03-16T07:43:42.618Z,22.3
2018-03-16T07:44:32.378Z,22.6
2018-03-16T07:45:22.718Z,23
2018-03-16T07:46:13.336Z,23.4
2018-03-16T07:47:03.753Z,23.8
2018-03-16T07:47:52.143Z,24.1
2018-03-16T07:48:42.563Z,24.4
2018-03-16T07:49:32.105Z,24.8
2018-03-16T07:50:22.445Z,25
2018-03-16T07:51:12.105Z,25.3
2018-03-16T07:52:02.496Z,25.4
2018-03-16T07:52:51.660Z,25.6
2018-03-16T07:53:41.907Z,25.8
2018-03-16T07:54:32.573Z,25.9
2018-03-16T07:55:23.235Z,26.1
2018-03-16T07:56:13.832Z,26.1
2018-03-16T07:57:03.887Z,26.3
2018-03-16T07:57:53.450Z,26.3
2018-03-16T07:58:44.535Z,26.4
2018-03-16T07:59:34.053Z,26.4
2018-03-16T08:00:23.810Z,26.4
2018-03-16T08:01:14.826Z,26.5
2018-03-16T08:02:04.543Z,26.6
2018-03-16T08:02:53.960Z,26.6
2018-03-16T08:03:44.662Z,26.5
2018-03-16T08:04:34.652Z,24.9
2018-03-16T08:05:24.184Z,24
2018-03-16T08:06:14.212Z,23.4
2018-03-16T08:07:05.170Z,23
2018-03-16T08:07:55.155Z,22.7
2018-03-16T08:08:44.309Z,22.5
2018-03-16T08:09:35.074Z,22.4
2018-03-16T08:10:25.068Z,22.3
2018-03-16T08:11:15.126Z,22.1
2018-03-16T08:12:04.374Z,22.4
2018-03-16T08:12:54.709Z,22.7
2018-03-16T08:13:45.611Z,23.1
2018-03-16T08:14:35.374Z,23.4
2018-03-16T08:15:26.319Z,23.8
2018-03-16T08:16:15.809Z,24.2
2018-03-16T08:17:05.270Z,24.5
2018-03-16T08:17:55.899Z,24.8
2018-03-16T08:18:45.463Z,25
2018-03-16T08:19:35.761Z,25.3
2018-03-16T08:20:25.521Z,25.4
2018-03-16T08:21:15.867Z,25.6
2018-03-16T08:22:05.326Z,25.8
2018-03-16T08:22:56.226Z,25.9
2018-03-16T08:23:46.068Z,26
2018-03-16T08:24:36.115Z,26.1
2018-03-16T08:25:26.450Z,26.2
2018-03-16T08:26:16.201Z,26.3
2018-03-16T08:27:06.006Z,26.3
2018-03-16T08:27:56.031Z,26.4
2018-03-16T08:28:46.396Z,26.4
2018-03-16T08:29:36.208Z,26.4
2018-03-16T08:30:26.273Z,26.4
2018-03-16T08:31:16.969Z,26.5
2018-03-16T08:32:06.056Z,26
2018-03-16T08:32:56.415Z,24.6
2018-03-16T08:33:46.495Z,23.8
2018-03-16T08:34:37.108Z,23.3
2018-03-16T08:35:25.735Z,22.9
2018-03-16T08:36:16.734Z,22.6
2018-03-16T08:37:06.972Z,22.4
2018-03-16T08:37:56.557Z,22.3
2018-03-16T08:38:47.112Z,22.2
2018-03-16T08:39:36.663Z,22.1
2018-03-16T08:40:26.072Z,22.4
2018-03-16T08:41:16.523Z,22.8
2018-03-16T08:42:07.148Z,23.1
2018-03-16T08:42:56.599Z,23.5
2018-03-16T08:43:45.767Z,23.9
2018-03-16T08:44:35.993Z,24.2
2018-03-16T08:45:26.651Z,24.5
2018-03-16T08:46:16.951Z,24.8
2018-03-16T08:47:06.293Z,25.1
2018-03-16T08:47:55.751Z,25.3
2018-03-16T08:48:46.584Z,25.5
2018-03-16T08:49:37.629Z,25.6
2018-03-16T08:50:26.329Z,25.8
2018-03-16T08:51:16.132Z,25.9
2018-03-16T08:52:05.930Z,26
2018-03-16T08:52:57.686Z,26.1
2018-03-16T08:53:46.580Z,26.2
2018-03-16T08:54:37.011Z,26.3
2018-03-16T08:55:27.466Z,26.3
2018-03-16T08:56:17.804Z,26.4
2018-03-16T08:57:07.880Z,26.4
2018-03-16T08:57:55.972Z,26.4
2018-03-16T08:58:46.654Z,26.5
2018-03-16T08:59:37.449Z,26.5
2018-03-16T09:00:27.733Z,25.8
2018-03-16T09:01:17.823Z,24.5
2018-03-16T09:02:06.980Z,23.8
2018-03-16T09:02:56.974Z,23.2
2018-03-16T09:03:48.246Z,22.8
2018-03-16T09:04:37.627Z,22.6
2018-03-16T09:05:27.336Z,22.4
2018-03-16T09:06:17.298Z,22.3
2018-03-16T09:07:07.583Z,22.1
2018-03-16T09:07:57.078Z,22.2
2018-03-16T09:08:48.745Z,22.6
2018-03-16T09:09:39.094Z,22.9
2018-03-16T09:10:28.131Z,23.3
2018-03-16T09:11:18.323Z,23.7
2018-03-16T09:12:08.013Z,24.1
2018-03-16T09:12:59.029Z,24.4
2018-03-16T09:13:48.885Z,24.8
2018-03-16T09:14:39.041Z,25
2018-03-16T09:15:28.065Z,25.3
2018-03-16T09:16:17.991Z,25.4
2018-03-16T09:17:09.028Z,25.6
2018-03-16T09:17:58.951Z,25.8
2018-03-16T09:18:48.626Z,25.9
2018-03-16T09:19:38.734Z,26
2018-03-16T09:20:28.268Z,26.1
2018-03-16T09:21:18.833Z,26.3
2018-03-16T09:22:09.673Z,26.3
2018-03-16T09:22:58.939Z,26.3
2018-03-16T09:23:48.868Z,26.4
2018-03-16T09:24:39.221Z,26.4
2018-03-16T09:25:28.956Z,26.4
2018-03-16T09:26:18.997Z,26.5
2018-03-16T09:27:09.037Z,26.5
2018-03-16T09:27:59.179Z,26.5
2018-03-16T09:28:49.687Z,25
2018-03-16T09:29:40.072Z,24.1
2018-03-16T09:30:29.427Z,23.4
2018-03-16T09:31:19.760Z,22.9
2018-03-16T09:32:10.481Z,22.6
2018-03-16T09:32:59.630Z,22.4
2018-03-16T09:33:50.116Z,22.3
2018-03-16T09:34:40.149Z,22.1
2018-03-16T09:35:30.639Z,22.2
2018-03-16T09:36:19.965Z,22.5
2018-03-16T09:37:10.653Z,22.9
2018-03-16T09:37:59.025Z,23.3
2018-03-16T09:38:50.338Z,23.6
2018-03-16T09:39:40.797Z,24.1
2018-03-16T09:40:30.385Z,24.4
2018-03-16T09:41:20.539Z,24.7
2018-03-16T09:42:09.409Z,25
2018-03-16T09:43:00.270Z,25.3
2018-03-16T09:43:49.591Z,25.4
2018-03-16T09:44:40.663Z,25.6
2018-03-16T09:45:30.253Z,25.8
2018-03-16T09:46:20.219Z,25.9
2018-03-16T09:47:09.951Z,26.1
2018-03-16T09:48:00.876Z,26.1
2018-03-16T09:48:50.773Z,26.3
2018-03-16T09:49:41.179Z,26.3
2018-03-16T09:50:31.154Z,26.4
2018-03-16T09:51:21.092Z,26.4
2018-03-16T09:52:10.019Z,26.5
2018-03-16T09:53:01.949Z,26.5
2018-03-16T09:53:50.941Z,26.6
2018-03-16T09:54:40.866Z,26.6
2018-03-16T09:55:31.350Z,26.6
2018-03-16T09:56:21.330Z,25.8
2018-03-16T09:57:11.557Z,24.4
2018-03-16T09:58:01.133Z,23.7
2018-03-16T09:58:51.087Z,23.1
2018-03-16T09:59:40.834Z,22.7
2018-03-16T10:00:30.408Z,22.5
2018-03-16T10:01:20.771Z,22.3
2018-03-16T10:02:11.985Z,22.1
2018-03-16T10:03:00.888Z,22.1
2018-03-16T10:03:51.223Z,22.3
2018-03-16T10:04:41.531Z,22.7
2018-03-16T10:05:31.934Z,23.1
2018-03-16T10:06:21.729Z,23.5
2018-03-16T10:07:11.149Z,23.9
2018-03-16T10:08:01.833Z,24.3
2018-03-16T10:08:50.596Z,24.7
2018-03-16T10:09:41.848Z,24.9
2018-03-16T10:10:31.628Z,25.2
2018-03-16T10:11:22.962Z,25.4
2018-03-16T10:12:13.722Z,25.6
2018-03-16T10:13:03.854Z,25.8
2018-03-16T10:13:53.337Z,25.9
2018-03-16T10:14:42.870Z,26.1
2018-03-16T10:15:33.971Z,26.1
2018-03-16T10:16:24.300Z,26.3
2018-03-16T10:17:13.883Z,26.4
2018-03-16T10:18:02.829Z,26.4
2018-03-16T10:18:52.094Z,26.4
2018-03-16T10:19:42.546Z,26.5
2018-03-16T10:20:33.351Z,26.6
2018-03-16T10:21:22.382Z,26.6
2018-03-16T10:22:12.788Z,26.6
2018-03-16T10:23:03.860Z,26.6
2018-03-16T10:23:53.020Z,26.6
2018-03-16T10:24:44.227Z,25.2
2018-03-16T10:25:33.302Z,24.1
2018-03-16T10:26:22.716Z,23.4
2018-03-16T10:27:12.592Z,22.9
2018-03-16T10:28:03.762Z,22.6
2018-03-16T10:28:53.682Z,22.4
2018-03-16T10:29:44.156Z,22.2
2018-03-16T10:30:33.497Z,22.1
2018-03-16T10:31:23.579Z,22.1
2018-03-16T10:32:13.741Z,22.4
2018-03-16T10:33:03.833Z,22.8
2018-03-16T10:33:53.990Z,23.3
2018-03-16T10:34:44.581Z,23.6
2018-03-16T10:35:33.881Z,24
2018-03-16T10:36:24.318Z,24.3
2018-03-16T10:37:14.021Z,24.6
2018-03-16T10:38:04.166Z,24.9
2018-03-16T10:38:53.164Z,25.1
2018-03-16T10:39:44.673Z,25.4
2018-03-16T10:40:34.738Z,25.6
2018-03-16T10:41:23.991Z,25.7
2018-03-16T10:42:14.348Z,25.9
2018-03-16T10:43:04.923Z,26
2018-03-16T10:43:55.762Z,26.1
2018-03-16T10:44:45.085Z,26.2
2018-03-16T10:45:34.468Z,26.3
2018-03-16T10:46:24.547Z,26.3
2018-03-16T10:47:15.716Z,26.4
2018-03-16T10:48:05.655Z,26.4
2018-03-16T10:48:54.088Z,26.4
2018-03-16T10:49:44.507Z,26.4
2018-03-16T10:50:34.822Z,26.5
2018-03-16T10:51:24.655Z,26.5
2018-03-16T10:52:15.470Z,25.3
2018-03-16T10:53:04.445Z,24.2
2018-03-16T10:53:55.668Z,23.4
2018-03-16T10:54:45.157Z,22.9
2018-03-16T10:55:35.988Z,22.6
2018-03-16T10:56:26.142Z,22.4
2018-03-16T10:57:15.887Z,22.2
2018-03-16T10:58:05.573Z,22
2018-03-16T10:58:56.119Z,22.1
2018-03-16T10:59:45.217Z,22.4
2018-03-16T11:00:36.247Z,22.8
2018-03-16T11:01:26.855Z,23.3
2018-03-16T11:02:16.445Z,23.6
2018-03-16T11:03:06.167Z,24
2018-03-16T11:03:55.523Z,24.3
2018-03-16T11:04:45.599Z,24.6
2018-03-16T11:05:36.525Z,24.9
2018-03-16T11:06:27.152Z,25.2
2018-03-16T11:07:16.044Z,25.4
2018-03-16T11:08:06.510Z,25.6
2018-03-16T11:08:56.757Z,25.7